Time;durP1;ratioP1;P1;durP2;ratioP2;P2;SDS_P1;SDS_P2;PMS_P1;PMS_P2;Temp;Humidity;BMP_temperature;BMP_pressure;BME280_temperature;BME280_humidity;BME280_pressure;Samples;Min_cycle;Max_cycle;Signal;HPM_P1;HPM_P2
2023/06/10 00:01:02;;;;;;;8.60;6.43;;;21.90;99.90;;;;;;5092907;28;20224;-60
2023/06/10 00:03:30;;;;;;;7.47;6.80;;;21.90;99.90;;;;;;5093094;28;20311;-61
2023/06/10 00:05:58;;;;;;;8.75;7.18;;;21.90;99.90;;;;;;5093012;28;20211;-60
2023/06/10 00:08:26;;;;;;;7.65;6.53;;;21.80;99.90;;;;;;5093081;28;20207;-60
2023/06/10 00:10:54;;;;;;;8.63;7.60;;;21.80;99.90;;;;;;5092346;28;20287;-60
2023/06/10 00:13:22;;;;;;;8.15;7.32;;;21.80;99.90;;;;;;5092774;28;20307;-61
2023/06/10 00:15:50;;;;;;;9.38;7.32;;;21.70;99.90;;;;;;5092686;28;20208;-60
2023/06/10 00:18:22;;;;;;;8.70;7.10;;;21.70;99.90;;;;;;5092819;28;20208;-60
2023/06/10 00:20:52;;;;;;;7.72;7.03;;;21.70;99.90;;;;;;5092830;28;20267;-60
2023/06/10 00:23:20;;;;;;;8.55;6.90;;;21.60;99.90;;;;;;5092428;28;20752;-60
2023/06/10 00:25:48;;;;;;;7.97;7.13;;;21.60;99.90;;;;;;5092709;28;20615;-61
2023/06/10 00:28:16;;;;;;;7.47;6.88;;;21.60;99.90;;;;;;5092760;28;20218;-60
2023/06/10 00:30:44;;;;;;;7.63;6.75;;;21.50;99.90;;;;;;5092820;28;20608;-61
2023/06/10 00:33:12;;;;;;;8.98;6.93;;;21.50;99.90;;;;;;5092734;28;20315;-60
2023/06/10 00:35:41;;;;;;;9.13;6.80;;;21.40;99.90;;;;;;5092328;28;20204;-60
2023/06/10 00:38:09;;;;;;;8.82;6.85;;;21.40;99.90;;;;;;5092481;28;20616;-60
2023/06/10 00:40:40;;;;;;;8.13;7.18;;;21.40;99.90;;;;;;5092494;28;20342;-60
2023/06/10 00:43:08;;;;;;;8.27;7.38;;;21.30;99.90;;;;;;5101235;28;20264;-61
2023/06/10 00:45:36;;;;;;;9.55;6.82;;;21.40;99.90;;;;;;5112637;28;20289;-61
2023/06/10 00:48:04;;;;;;;7.50;6.80;;;21.30;99.90;;;;;;5112862;28;20203;-61
2023/06/10 00:50:34;;;;;;;8.25;7.53;;;21.30;99.90;;;;;;5112714;28;20203;-61
2023/06/10 00:53:03;;;;;;;9.25;6.65;;;21.20;99.90;;;;;;5112732;28;20231;-61
2023/06/10 00:55:32;;;;;;;10.57;7.28;;;21.20;99.90;;;;;;5112572;28;20242;-61
2023/06/10 00:58:00;;;;;;;8.40;7.57;;;21.20;99.90;;;;;;5112929;28;20299;-61
2023/06/10 01:00:28;;;;;;;7.93;7.13;;;21.10;99.90;;;;;;5112622;28;20265;-61
2023/06/10 01:02:56;;;;;;;8.93;7.55;;;21.10;99.90;;;;;;5112101;28;20678;-61
2023/06/10 01:05:25;;;;;;;11.70;7.50;;;21.10;99.90;;;;;;5112503;28;20272;-61
2023/06/10 01:08:01;;;;;;;8.48;7.68;;;21.00;99.90;;;;;;5112368;28;20662;-61
2023/06/10 01:10:34;;;;;;;8.13;7.18;;;21.00;99.90;;;;;;5112897;28;20230;-61
2023/06/10 01:13:03;;;;;;;6.93;6.28;;;20.90;99.90;;;;;;5112199;28;20702;-61
2023/06/10 01:15:31;;;;;;;7.75;7.05;;;20.90;99.90;;;;;;5111880;28;20727;-61
2023/06/10 01:18:01;;;;;;;8.80;7.30;;;20.80;99.90;;;;;;5112379;28;20255;-62
2023/06/10 01:20:31;;;;;;;9.25;7.22;;;20.80;99.90;;;;;;5112187;28;20254;-62
2023/06/10 01:23:02;;;;;;;8.05;7.25;;;20.80;99.90;;;;;;5111132;28;20767;-62
2023/06/10 01:25:32;;;;;;;11.10;6.70;;;20.80;99.90;;;;;;5111849;28;20221;-61
2023/06/10 01:28:03;;;;;;;8.40;7.50;;;20.70;99.90;;;;;;5111954;28;20207;-61
2023/06/10 01:30:37;;;;;;;10.43;7.05;;;20.70;99.90;;;;;;5112248;28;20271;-61
2023/06/10 01:33:05;;;;;;;7.97;7.28;;;20.60;99.90;;;;;;5111939;28;20223;-61
2023/06/10 01:35:33;;;;;;;8.50;6.68;;;20.60;99.90;;;;;;5111840;28;20207;-62
2023/06/10 01:38:02;;;;;;;10.38;6.80;;;20.50;99.90;;;;;;5111971;28;20293;-61
2023/06/10 01:40:30;;;;;;;8.60;7.75;;;20.50;99.90;;;;;;5111750;28;20263;-62
2023/06/10 01:42:58;;;;;;;11.27;7.97;;;20.50;99.90;;;;;;5104306;28;20216;-62
2023/06/10 01:45:26;;;;;;;9.10;7.25;;;20.40;99.90;;;;;;5091558;28;20269;-61
2023/06/10 01:47:53;;;;;;;9.38;6.85;;;20.30;99.90;;;;;;5091628;28;20235;-61
2023/06/10 01:50:21;;;;;;;11.68;7.38;;;20.30;99.90;;;;;;5091740;28;20219;-61
2023/06/10 01:52:49;;;;;;;8.38;7.10;;;20.30;99.90;;;;;;5091529;28;20231;-61
2023/06/10 01:55:19;;;;;;;9.25;7.32;;;20.30;99.90;;;;;;5090477;28;20627;-61
2023/06/10 01:57:47;;;;;;;9.57;7.32;;;20.20;99.90;;;;;;5091613;28;20295;-62
2023/06/10 02:00:16;;;;;;;8.98;7.57;;;20.20;99.90;;;;;;5091688;28;20651;-61
2023/06/10 02:02:44;;;;;;;8.13;7.28;;;20.20;99.90;;;;;;5091487;28;20642;-61
2023/06/10 02:05:12;;;;;;;8.77;7.05;;;20.10;99.90;;;;;;5091121;28;20239;-61
2023/06/10 02:07:39;;;;;;;13.10;7.78;;;20.10;99.90;;;;;;5091311;28;20215;-61
2023/06/10 02:10:08;;;;;;;8.10;7.38;;;20.00;99.90;;;;;;5091602;28;20250;-61
2023/06/10 02:12:38;;;;;;;9.43;7.68;;;19.90;99.90;;;;;;5091514;28;20255;-62
2023/06/10 02:15:06;;;;;;;10.57;8.02;;;19.90;99.90;;;;;;5091053;28;20634;-61
2023/06/10 02:17:34;;;;;;;7.70;7.03;;;19.80;99.90;;;;;;5091362;28;20214;-61
2023/06/10 02:20:06;;;;;;;10.70;7.47;;;19.70;99.90;;;;;;5091030;28;20205;-61
2023/06/10 02:22:34;;;;;;;11.48;8.23;;;19.70;99.90;;;;;;5090897;28;20606;-61
2023/06/10 02:25:02;;;;;;;11.75;7.53;;;19.60;99.90;;;;;;5091213;28;20250;-61
2023/06/10 02:27:31;;;;;;;11.05;7.80;;;19.50;99.90;;;;;;5091226;28;20296;-61
2023/06/10 02:30:00;;;;;;;10.02;7.43;;;19.40;99.90;;;;;;5091406;28;20576;-61
2023/06/10 02:32:28;;;;;;;11.40;7.28;;;19.40;99.90;;;;;;5090965;28;20281;-62
2023/06/10 02:34:56;;;;;;;9.80;8.30;;;19.30;99.90;;;;;;5094889;28;20219;-61
2023/06/10 02:37:23;;;;;;;8.27;7.47;;;19.30;99.90;;;;;;5094728;28;20766;-61
2023/06/10 02:39:51;;;;;;;7.75;6.55;;;19.30;99.90;;;;;;5095068;28;20291;-61
2023/06/10 02:42:19;;;;;;;8.63;7.65;;;19.20;99.90;;;;;;5096642;28;20257;-61
2023/06/10 02:44:47;;;;;;;8.70;7.80;;;19.20;99.90;;;;;;5115047;28;20214;-61
2023/06/10 02:47:16;;;;;;;11.07;8.10;;;19.10;99.90;;;;;;5115027;28;20239;-61
2023/06/10 02:49:44;;;;;;;10.82;8.15;;;19.10;99.90;;;;;;5115351;28;20306;-61
2023/06/10 02:52:12;;;;;;;9.75;7.70;;;19.00;99.90;;;;;;5114921;28;20272;-61
2023/06/10 02:54:40;;;;;;;8.68;7.90;;;19.00;99.90;;;;;;5114625;28;20199;-61
2023/06/10 02:57:07;;;;;;;10.25;8.02;;;18.90;99.90;;;;;;5114942;28;20298;-61
2023/06/10 02:59:35;;;;;;;11.73;8.10;;;18.90;99.90;;;;;;5114811;28;20291;-61
2023/06/10 03:02:04;;;;;;;11.68;8.55;;;18.80;99.90;;;;;;5114645;28;20310;-61
2023/06/10 03:04:33;;;;;;;10.32;8.50;;;18.80;99.90;;;;;;5094298;28;20248;-61
2023/06/10 03:07:03;;;;;;;8.95;8.15;;;18.70;99.90;;;;;;5074201;28;20259;-61
2023/06/10 03:09:31;;;;;;;11.43;8.85;;;18.70;99.90;;;;;;5074251;28;20699;-61
2023/06/10 03:12:00;;;;;;;8.55;7.75;;;18.60;99.90;;;;;;5073902;28;20274;-61
2023/06/10 03:14:28;;;;;;;11.15;8.25;;;18.50;99.90;;;;;;5073823;28;20568;-61
2023/06/10 03:16:56;;;;;;;12.45;8.38;;;18.50;99.90;;;;;;5073869;28;20715;-61
2023/06/10 03:19:24;;;;;;;9.32;8.38;;;18.40;99.90;;;;;;5074064;28;20287;-61
2023/06/10 03:21:59;;;;;;;10.40;8.07;;;18.40;99.90;;;;;;5073611;28;20315;-61
2023/06/10 03:24:27;;;;;;;12.02;8.20;;;18.40;99.90;;;;;;5073547;28;20642;-61
2023/06/10 03:26:55;;;;;;;11.73;8.40;;;18.40;99.90;;;;;;5073829;28;20204;-61
2023/06/10 03:29:23;;;;;;;9.27;7.78;;;18.30;99.90;;;;;;5073645;28;20674;-61
2023/06/10 03:31:50;;;;;;;9.93;8.93;;;18.30;99.90;;;;;;5073634;28;20676;-61
2023/06/10 03:34:18;;;;;;;11.75;9.20;;;18.30;99.90;;;;;;5073195;28;20205;-61
2023/06/10 03:36:46;;;;;;;12.50;8.82;;;18.30;99.90;;;;;;5073237;28;20707;-61
2023/06/10 03:39:15;;;;;;;12.68;8.90;;;18.20;99.90;;;;;;5073336;28;20204;-61
2023/06/10 03:41:43;;;;;;;10.68;8.50;;;18.20;99.90;;;;;;5073266;28;20779;-61
2023/06/10 03:44:11;;;;;;;12.73;8.25;;;18.10;99.90;;;;;;5108877;28;20203;-60
2023/06/10 03:46:39;;;;;;;10.30;8.88;;;18.10;99.90;;;;;;5113294;28;20246;-61
2023/06/10 03:49:09;;;;;;;10.10;8.38;;;18.10;99.90;;;;;;5114262;28;20207;-61
2023/06/10 03:51:37;;;;;;;9.18;8.27;;;18.10;99.90;;;;;;5113591;28;20297;-61
2023/06/10 03:54:05;;;;;;;9.50;8.60;;;18.10;99.90;;;;;;5113455;28;20296;-61
2023/06/10 03:56:34;;;;;;;12.52;8.63;;;18.10;99.90;;;;;;5113565;28;20242;-61
2023/06/10 03:59:02;;;;;;;8.93;8.00;;;18.20;99.90;;;;;;5113935;28;20418;-61
2023/06/10 04:01:31;;;;;;;11.27;8.15;;;18.20;99.90;;;;;;5113802;28;20264;-61
2023/06/10 04:03:59;;;;;;;11.40;8.38;;;18.20;99.90;;;;;;5113194;28;20223;-61
2023/06/10 04:06:28;;;;;;;8.90;8.10;;;18.20;99.90;;;;;;5113255;28;20250;-61
2023/06/10 04:08:57;;;;;;;10.68;8.00;;;18.30;99.90;;;;;;5113660;28;20282;-61
2023/06/10 04:11:25;;;;;;;8.73;7.88;;;18.30;99.90;;;;;;5113499;28;20290;-61
2023/06/10 04:13:54;;;;;;;12.80;8.50;;;18.30;99.90;;;;;;5113126;28;20670;-61
2023/06/10 04:16:22;;;;;;;8.55;7.72;;;18.20;99.90;;;;;;5113039;28;20318;-61
2023/06/10 04:18:50;;;;;;;8.35;7.68;;;18.30;99.90;;;;;;5113150;28;20203;-61
2023/06/10 04:21:18;;;;;;;8.48;7.78;;;18.30;99.90;;;;;;5113388;28;20203;-60
2023/06/10 04:23:49;;;;;;;11.73;8.93;;;18.30;99.90;;;;;;5113006;28;20230;-61
2023/06/10 04:26:17;;;;;;;9.25;7.78;;;18.30;99.90;;;;;;5112899;28;20231;-61
2023/06/10 04:28:45;;;;;;;10.95;8.05;;;18.30;99.90;;;;;;5113033;28;20246;-61
2023/06/10 04:31:14;;;;;;;8.93;8.02;;;18.40;99.90;;;;;;5113038;28;20272;-61
2023/06/10 04:33:42;;;;;;;9.07;8.15;;;18.40;99.90;;;;;;5113061;28;20234;-61
2023/06/10 04:36:10;;;;;;;8.52;7.68;;;18.40;99.90;;;;;;5112309;28;20647;-61
2023/06/10 04:38:38;;;;;;;9.35;7.85;;;18.40;99.90;;;;;;5113170;28;20249;-61
2023/06/10 04:41:06;;;;;;;8.90;7.78;;;18.50;99.90;;;;;;5113149;28;20241;-61
2023/06/10 04:43:34;;;;;;;8.18;7.35;;;18.50;99.90;;;;;;5099849;28;20685;-61
2023/06/10 04:46:02;;;;;;;9.43;8.13;;;18.60;99.90;;;;;;5092261;28;20235;-61
2023/06/10 04:48:35;;;;;;;8.77;7.60;;;18.60;99.90;;;;;;5092428;28;20299;-61
2023/06/10 04:51:02;;;;;;;8.57;7.65;;;18.60;99.90;;;;;;5092538;28;20242;-61
2023/06/10 04:53:30;;;;;;;9.02;7.03;;;18.80;99.90;;;;;;5092276;28;20656;-61
2023/06/10 04:55:58;;;;;;;8.82;7.55;;;18.80;99.90;;;;;;5091952;28;20203;-61
2023/06/10 04:58:26;;;;;;;9.05;7.68;;;18.80;99.90;;;;;;5092148;28;20204;-61
2023/06/10 05:00:54;;;;;;;9.05;7.43;;;18.90;99.90;;;;;;5092596;28;20253;-61
2023/06/10 05:03:22;;;;;;;7.97;7.05;;;18.90;99.90;;;;;;5091944;28;20278;-61
2023/06/10 05:05:51;;;;;;;9.35;7.03;;;19.00;99.90;;;;;;5091978;28;20208;-61
2023/06/10 05:08:19;;;;;;;11.32;7.88;;;19.00;99.90;;;;;;5092275;28;20291;-61
2023/06/10 05:10:47;;;;;;;12.20;7.68;;;19.00;99.90;;;;;;5091877;28;20208;-61
2023/06/10 05:13:17;;;;;;;12.23;7.40;;;19.00;99.90;;;;;;5092082;28;20223;-61
2023/06/10 05:15:46;;;;;;;7.82;7.10;;;19.00;99.90;;;;;;5091529;28;20212;-61
2023/06/10 05:18:14;;;;;;;8.60;7.05;;;19.00;99.90;;;;;;5092047;28;20208;-61
2023/06/10 05:20:42;;;;;;;10.40;7.93;;;19.10;99.90;;;;;;5091746;28;20208;-61
2023/06/10 05:23:11;;;;;;;7.63;6.55;;;19.10;99.90;;;;;;5091505;28;20667;-61
2023/06/10 05:25:39;;;;;;;7.15;6.45;;;19.20;99.90;;;;;;5091750;28;20332;-61
2023/06/10 05:28:09;;;;;;;5.90;5.35;;;19.20;99.90;;;;;;5091689;28;20758;-61
2023/06/10 05:30:41;;;;;;;7.93;6.75;;;19.30;99.90;;;;;;5091886;28;20204;-61
2023/06/10 05:33:09;;;;;;;7.82;6.20;;;19.40;99.90;;;;;;5091916;28;20258;-61
2023/06/10 05:35:37;;;;;;;8.68;6.15;;;19.50;99.90;;;;;;5091542;28;20204;-61
2023/06/10 05:38:04;;;;;;;6.80;5.68;;;19.60;99.90;;;;;;5091767;28;20642;-61
2023/06/10 05:40:34;;;;;;;8.63;6.07;;;19.70;99.90;;;;;;5092042;28;20295;-61
2023/06/10 05:43:01;;;;;;;6.88;6.28;;;19.70;99.90;;;;;;5099896;28;20227;-61
2023/06/10 05:45:29;;;;;;;10.32;5.80;;;19.80;99.90;;;;;;5111843;28;20286;-61
2023/06/10 05:47:57;;;;;;;7.85;5.72;;;19.90;99.90;;;;;;5111960;28;20203;-61
2023/06/10 05:50:25;;;;;;;10.65;6.55;;;20.00;99.90;;;;;;5111955;28;20207;-61
2023/06/10 05:52:54;;;;;;;13.63;6.63;;;20.10;99.90;;;;;;5112222;28;20215;-58
2023/06/10 05:55:22;;;;;;;9.57;5.80;;;20.10;99.90;;;;;;5111868;28;20264;-60
2023/06/10 05:58:00;;;;;;;7.07;5.57;;;20.20;99.90;;;;;;5106438;28;20569;-62
2023/06/10 06:00:28;;;;;;;8.85;5.80;;;20.30;99.90;;;;;;5087081;28;20681;-57
2023/06/10 06:02:58;;;;;;;7.35;6.38;;;20.30;99.90;;;;;;5090454;28;20227;-58
2023/06/10 06:05:27;;;;;;;6.18;5.57;;;20.40;99.90;;;;;;5089476;28;20234;-56
2023/06/10 06:07:55;;;;;;;7.32;5.90;;;20.50;99.90;;;;;;5090994;28;20238;-54
2023/06/10 06:10:23;;;;;;;8.23;6.53;;;20.60;99.90;;;;;;5094845;28;20302;-58
2023/06/10 06:12:50;;;;;;;6.35;5.75;;;20.60;99.90;;;;;;5094306;28;20451;-58
2023/06/10 06:15:20;;;;;;;7.90;5.95;;;20.70;99.90;;;;;;5094503;28;20284;-56
2023/06/10 06:17:47;;;;;;;7.07;6.03;;;20.80;99.90;;;;;;5094630;28;20261;-55
2023/06/10 06:20:15;;;;;;;5.80;5.30;;;20.90;99.90;;;;;;5095073;28;20208;-54
2023/06/10 06:22:46;;;;;;;6.00;5.40;;;21.00;99.90;;;;;;5094304;28;20715;-55
2023/06/10 06:25:15;;;;;;;7.53;5.40;;;21.10;99.90;;;;;;5094838;28;20224;-56
2023/06/10 06:27:42;;;;;;;6.18;5.68;;;21.20;99.90;;;;;;5095075;28;20216;-56
2023/06/10 06:30:11;;;;;;;9.45;5.72;;;21.20;99.90;;;;;;5095205;28;20231;-55
2023/06/10 06:32:40;;;;;;;6.35;5.47;;;21.40;99.90;;;;;;5095128;28;20318;-54
2023/06/10 06:35:09;;;;;;;7.65;5.82;;;21.40;99.90;;;;;;5094883;28;20253;-56
2023/06/10 06:37:37;;;;;;;6.32;5.47;;;21.50;99.90;;;;;;5094182;28;20277;-55
2023/06/10 06:40:06;;;;;;;5.65;5.10;;;21.60;99.90;;;;;;5093111;28;20302;-56
2023/06/10 06:42:34;;;;;;;7.10;5.53;;;21.60;99.90;;;;;;5094288;28;20310;-57
2023/06/10 06:45:02;;;;;;;5.97;5.43;;;21.70;99.90;;;;;;5094544;28;20220;-58
2023/06/10 06:47:30;;;;;;;5.80;5.25;;;21.80;99.90;;;;;;5094752;28;20203;-56
2023/06/10 06:49:59;;;;;;;7.28;5.70;;;21.90;99.90;;;;;;5094477;28;20698;-58
2023/06/10 06:52:27;;;;;;;6.32;5.72;;;22.00;99.90;;;;;;5094689;28;20267;-54
2023/06/10 06:54:55;;;;;;;6.40;5.40;;;22.10;99.90;;;;;;5094322;28;20200;-57
2023/06/10 06:57:24;;;;;;;6.45;5.88;;;22.20;99.90;;;;;;5094878;28;20239;-55
2023/06/10 06:59:51;;;;;;;6.85;5.45;;;22.20;99.90;;;;;;5094871;28;20290;-56
2023/06/10 07:02:19;;;;;;;13.05;6.05;;;22.30;99.90;;;;;;5094734;28;20278;-56
2023/06/10 07:04:48;;;;;;;6.07;5.53;;;22.40;99.90;;;;;;5094095;28;20626;-56
2023/06/10 07:07:18;;;;;;;7.70;5.63;;;22.50;99.90;;;;;;5094180;28;20203;-58
2023/06/10 07:09:45;;;;;;;6.22;5.22;;;22.50;99.90;;;;;;5092747;28;20659;-54
2023/06/10 07:12:13;;;;;;;6.20;5.45;;;22.60;99.90;;;;;;5094463;28;20707;-57
2023/06/10 07:14:41;;;;;;;6.65;6.00;;;22.70;99.90;;;;;;5094276;28;20231;-56
2023/06/10 07:17:09;;;;;;;5.88;5.47;;;22.70;99.90;;;;;;5093381;28;20269;-58
2023/06/10 07:19:37;;;;;;;9.68;5.25;;;22.80;99.90;;;;;;5092556;28;20679;-54
2023/06/10 07:22:06;;;;;;;6.60;5.70;;;22.80;99.90;;;;;;5094034;28;20239;-56
2023/06/10 07:24:35;;;;;;;8.43;5.65;;;22.90;99.90;;;;;;5093964;28;20308;-57
2023/06/10 07:27:03;;;;;;;5.65;5.13;;;23.00;99.90;;;;;;5093803;28;20291;-56
2023/06/10 07:29:31;;;;;;;7.30;5.72;;;23.10;99.90;;;;;;5092830;28;20759;-56
2023/06/10 07:31:59;;;;;;;10.45;5.10;;;23.20;99.90;;;;;;5091647;28;20242;-56
2023/06/10 07:34:27;;;;;;;6.35;5.40;;;23.30;99.90;;;;;;5093599;28;20204;-57
2023/06/10 07:36:54;;;;;;;6.50;5.85;;;23.30;99.90;;;;;;5091655;28;20295;-58
2023/06/10 07:39:22;;;;;;;6.72;5.53;;;23.50;99.90;;;;;;5090608;28;20239;-55
2023/06/10 07:41:53;;;;;;;5.70;5.10;;;23.60;99.90;;;;;;5091667;28;20287;-56
2023/06/10 07:44:21;;;;;;;7.63;5.85;;;23.70;99.90;;;;;;5096432;28;20219;-55
2023/06/10 07:46:49;;;;;;;7.60;5.45;;;23.80;99.90;;;;;;5093321;28;20214;-56
2023/06/10 07:49:17;;;;;;;6.78;5.88;;;23.80;99.90;;;;;;5093580;28;20683;-55
2023/06/10 07:51:45;;;;;;;6.50;5.90;;;23.90;99.90;;;;;;5093776;28;20291;-59
2023/06/10 07:54:13;;;;;;;5.32;4.93;;;23.90;99.90;;;;;;5093353;28;20208;-60
2023/06/10 07:56:44;;;;;;;6.47;5.82;;;24.00;99.90;;;;;;5093514;28;20303;-59
2023/06/10 07:59:14;;;;;;;6.15;4.80;;;24.10;99.90;;;;;;5092269;28;20203;-59
2023/06/10 08:01:42;;;;;;;6.22;5.63;;;24.20;99.90;;;;;;5092455;28;20735;-59
2023/06/10 08:04:10;;;;;;;7.88;6.05;;;24.30;99.90;;;;;;5092870;28;20691;-59
2023/06/10 08:06:38;;;;;;;6.38;5.78;;;24.40;99.90;;;;;;5093309;28;20247;-60
2023/06/10 08:09:06;;;;;;;7.63;4.93;;;24.50;99.90;;;;;;5093328;28;20208;-59
2023/06/10 08:11:34;;;;;;;10.20;6.10;;;24.60;99.90;;;;;;5093293;28;20299;-60
2023/06/10 08:14:02;;;;;;;8.52;5.45;;;24.70;99.90;;;;;;5092897;28;20219;-60
2023/06/10 08:16:31;;;;;;;7.20;5.97;;;24.80;99.90;;;;;;5092719;28;20302;-59
2023/06/10 08:18:59;;;;;;;6.15;5.60;;;24.90;99.90;;;;;;5092964;28;20570;-59
2023/06/10 08:21:28;;;;;;;6.78;5.22;;;25.00;99.90;;;;;;5093237;28;20208;-60
2023/06/10 08:23:56;;;;;;;6.28;5.72;;;25.00;99.90;;;;;;5092811;28;20314;-60
2023/06/10 08:26:25;;;;;;;6.38;5.78;;;25.10;99.90;;;;;;5092798;28;20227;-60
2023/06/10 08:28:54;;;;;;;6.10;5.60;;;25.00;99.90;;;;;;5091645;28;20227;-60
2023/06/10 08:31:22;;;;;;;9.32;6.10;;;25.10;99.90;;;;;;5092118;28;20296;-60
2023/06/10 08:33:51;;;;;;;18.58;7.25;;;25.20;99.90;;;;;;5092946;28;20282;-60
2023/06/10 08:36:19;;;;;;;14.18;7.28;;;25.30;99.90;;;;;;5092673;28;20299;-60
2023/06/10 08:38:47;;;;;;;18.23;8.38;;;25.30;99.90;;;;;;5092773;28;20294;-60
2023/06/10 08:41:16;;;;;;;7.05;6.35;;;25.40;99.90;;;;;;5092692;28;20243;-61
2023/06/10 08:43:46;;;;;;;10.52;5.88;;;25.50;99.90;;;;;;5106751;28;20247;-60
2023/06/10 08:46:14;;;;;;;6.60;6.10;;;25.70;99.90;;;;;;5112694;28;20313;-61
2023/06/10 08:48:43;;;;;;;6.80;6.15;;;25.80;99.90;;;;;;5112883;28;20643;-60
2023/06/10 08:51:14;;;;;;;7.13;6.40;;;25.80;99.90;;;;;;5112805;28;20230;-60
2023/06/10 08:53:45;;;;;;;6.50;5.78;;;25.90;99.90;;;;;;5112496;28;20314;-61
2023/06/10 08:56:13;;;;;;;8.55;5.70;;;26.00;99.90;;;;;;5112755;28;20200;-61
2023/06/10 08:58:41;;;;;;;11.82;6.85;;;26.10;99.90;;;;;;5112847;28;20662;-60
2023/06/10 09:01:10;;;;;;;10.88;6.38;;;26.20;99.90;;;;;;5112734;28;20203;-60
2023/06/10 09:03:38;;;;;;;7.65;6.32;;;26.20;99.90;;;;;;5111824;28;20223;-61
2023/06/10 09:06:06;;;;;;;9.10;5.93;;;26.30;99.90;;;;;;5089689;28;20223;-60
2023/06/10 09:08:36;;;;;;;11.45;6.32;;;26.40;99.90;;;;;;5091225;28;20246;-60
2023/06/10 09:11:04;;;;;;;6.90;5.93;;;26.50;99.90;;;;;;5091128;28;20208;-60
2023/06/10 09:13:32;;;;;;;7.07;6.43;;;26.60;99.90;;;;;;5091727;28;20235;-60
2023/06/10 09:16:01;;;;;;;6.63;6.03;;;26.80;99.90;;;;;;5088319;28;20206;-60
2023/06/10 09:18:29;;;;;;;6.68;5.65;;;26.90;99.90;;;;;;5090656;28;20200;-59
2023/06/10 09:20:57;;;;;;;6.20;5.70;;;27.00;99.90;;;;;;5090603;28;20306;-60
2023/06/10 09:23:25;;;;;;;18.23;6.38;;;27.10;99.90;;;;;;5089151;28;20778;-60
2023/06/10 09:25:58;;;;;;;6.45;5.97;;;27.30;99.90;;;;;;5090022;28;20276;-60
2023/06/10 09:28:26;;;;;;;15.00;6.70;;;27.40;99.90;;;;;;5089314;28;20204;-59
2023/06/10 09:31:03;;;;;;;7.70;5.88;;;27.60;99.90;;;;;;5091063;28;20747;-60
2023/06/10 09:33:31;;;;;;;8.30;6.05;;;27.70;99.90;;;;;;5091277;28;20223;-60
2023/06/10 09:36:01;;;;;;;7.05;6.40;;;27.90;99.90;;;;;;5084920;28;20287;-60
2023/06/10 09:38:30;;;;;;;8.35;6.00;;;28.10;99.90;;;;;;5091189;28;20208;-59
2023/06/10 09:41:01;;;;;;;11.30;6.13;;;28.20;99.90;;;;;;5088048;28;20262;-60
2023/06/10 09:43:42;;;;;;;7.30;5.63;;;28.40;99.90;;;;;;5088292;28;20264;-61
2023/06/10 09:46:16;;;;;;;11.68;6.00;;;28.40;99.90;;;;;;5087736;28;20239;-60
2023/06/10 09:48:44;;;;;;;5.90;5.22;;;28.50;99.90;;;;;;5091470;28;20204;-60
2023/06/10 09:51:13;;;;;;;5.97;5.30;;;28.60;99.90;;;;;;5091761;28;20663;-60
2023/06/10 09:53:41;;;;;;;9.80;5.50;;;28.90;99.90;;;;;;5091243;28;20784;-61
2023/06/10 09:56:10;;;;;;;5.93;5.10;;;29.00;99.90;;;;;;5091494;28;20243;-60
2023/06/10 09:58:38;;;;;;;6.28;5.68;;;29.20;99.90;;;;;;5091930;28;20238;-60
2023/06/10 10:01:07;;;;;;;6.05;4.72;;;29.40;99.90;;;;;;5091435;28;20243;-60
2023/06/10 10:03:35;;;;;;;6.53;5.63;;;29.50;99.90;;;;;;5089755;28;20234;-60
2023/06/10 10:06:03;;;;;;;6.25;5.65;;;29.60;99.90;;;;;;5090699;28;20277;-60
2023/06/10 10:08:31;;;;;;;6.20;5.60;;;29.70;99.90;;;;;;5086967;28;20637;-61
2023/06/10 10:10:59;;;;;;;6.88;5.60;;;29.60;99.90;;;;;;5089889;28;20204;-60
2023/06/10 10:13:28;;;;;;;7.38;5.28;;;29.70;99.90;;;;;;5091530;28;20255;-60
2023/06/10 10:15:56;;;;;;;7.18;5.03;;;29.70;99.90;;;;;;5090592;28;20893;-60
2023/06/10 10:18:28;;;;;;;7.43;5.15;;;29.90;99.90;;;;;;5091023;28;20671;-59
2023/06/10 10:20:56;;;;;;;6.43;4.90;;;30.10;99.90;;;;;;5091439;28;20236;-60
2023/06/10 10:23:27;;;;;;;5.50;5.10;;;30.30;99.90;;;;;;5089623;28;20862;-60
2023/06/10 10:25:55;;;;;;;5.40;5.00;;;30.50;99.90;;;;;;5089888;28;20586;-61
2023/06/10 10:28:26;;;;;;;6.03;5.13;;;30.60;99.90;;;;;;5091143;28;20196;-61
2023/06/10 10:30:57;;;;;;;5.40;5.00;;;30.90;99.40;;;;;;5091277;28;20204;-60
2023/06/10 10:33:28;;;;;;;5.50;5.10;;;30.90;98.70;;;;;;5091250;28;20311;-60
2023/06/10 10:35:57;;;;;;;8.35;4.90;;;31.00;98.90;;;;;;5090559;28;20282;-60
2023/06/10 10:38:25;;;;;;;5.45;4.95;;;31.20;98.10;;;;;;5090345;28;20688;-60
2023/06/10 10:40:53;;;;;;;5.78;5.35;;;31.40;98.10;;;;;;5088894;28;20300;-61
2023/06/10 10:43:20;;;;;;;5.30;4.80;;;31.60;98.30;;;;;;5089576;28;20248;-60
2023/06/10 10:46:00;;;;;;;5.80;5.30;;;31.80;97.50;;;;;;5090573;28;20717;-60
2023/06/10 10:48:29;;;;;;;7.57;6.03;;;31.90;97.10;;;;;;5089588;28;20203;-60
2023/06/10 10:50:58;;;;;;;6.30;5.55;;;32.00;97.80;;;;;;5090762;28;20204;-60
2023/06/10 10:53:26;;;;;;;5.40;4.90;;;31.90;95.00;;;;;;5090434;28;20732;-60
2023/06/10 10:56:00;;;;;;;5.97;5.10;;;31.90;96.60;;;;;;5092870;28;20234;-60
2023/06/10 10:58:28;;;;;;;7.38;4.68;;;32.30;96.20;;;;;;5094754;28;20239;-61
2023/06/10 11:00:56;;;;;;;5.57;5.10;;;32.70;96.10;;;;;;5094420;28;20770;-61
2023/06/10 11:03:29;;;;;;;7.63;5.07;;;33.00;94.30;;;;;;5091545;28;20280;-61
2023/06/10 11:05:58;;;;;;;5.70;5.20;;;33.00;92.80;;;;;;5094294;28;20747;-61
2023/06/10 11:08:56;;;;;;;5.53;5.00;;;32.80;93.20;;;;;;5094516;28;20207;-60
2023/06/10 11:11:29;;;;;;;5.75;5.20;;;33.10;93.40;;;;;;5051767;28;20577;-61
2023/06/10 11:14:00;;;;;;;6.25;5.50;;;33.30;93.20;;;;;;5086382;28;20660;-60
2023/06/10 11:16:28;;;;;;;6.03;5.47;;;33.20;92.30;;;;;;5094285;28;20575;-61
2023/06/10 11:18:58;;;;;;;5.32;5.00;;;33.40;92.90;;;;;;5094422;28;20208;-61
2023/06/10 11:21:26;;;;;;;5.20;4.68;;;33.70;91.40;;;;;;5094508;28;20291;-61
2023/06/10 11:23:58;;;;;;;5.13;4.75;;;33.90;91.20;;;;;;5093970;28;20224;-60
2023/06/10 11:26:34;;;;;;;6.80;4.80;;;34.20;90.00;;;;;;5093845;28;20239;-61
2023/06/10 11:29:07;;;;;;;5.03;4.68;;;34.40;90.30;;;;;;5093793;28;20284;-60
2023/06/10 11:31:40;;;;;;;4.72;4.18;;;34.50;86.40;;;;;;5094097;28;20200;-60
2023/06/10 11:34:09;;;;;;;5.43;4.40;;;34.40;85.30;;;;;;5093663;28;20242;-60
2023/06/10 11:36:40;;;;;;;4.53;4.18;;;34.50;85.70;;;;;;5093964;28;20204;-60
2023/06/10 11:39:08;;;;;;;7.70;4.57;;;34.30;80.60;;;;;;5093768;28;20292;-60
2023/06/10 11:41:36;;;;;;;5.32;4.25;;;33.10;80.80;;;;;;5093775;28;20640;-60
2023/06/10 11:44:05;;;;;;;5.20;4.82;;;32.50;83.80;;;;;;5110762;28;20223;-61
2023/06/10 11:46:34;;;;;;;6.97;4.07;;;32.60;88.30;;;;;;5105035;28;20302;-60
2023/06/10 11:49:02;;;;;;;5.68;4.47;;;33.00;87.30;;;;;;5093130;28;20606;-61
2023/06/10 11:51:34;;;;;;;6.85;4.20;;;33.50;86.40;;;;;;5094056;28;20196;-61
2023/06/10 11:54:01;;;;;;;4.45;4.03;;;33.40;81.20;;;;;;5103603;22;20314;-72
2023/06/10 11:56:30;;;;;;;4.07;3.72;;;33.00;82.30;;;;;;5101436;28;20258;-71
2023/06/10 11:59:03;;;;;;;4.05;3.63;;;33.00;82.30;;;;;;5110880;28;20279;-72
2023/06/10 12:01:32;;;;;;;5.68;4.07;;;33.40;81.70;;;;;;5110635;28;20626;-72
2023/06/10 12:04:02;;;;;;;4.30;4.00;;;33.80;81.40;;;;;;5110956;28;20243;-71
2023/06/10 12:06:40;;;;;;;4.43;3.92;;;34.30;79.90;;;;;;5109134;28;20227;-71
2023/06/10 12:09:13;;;;;;;4.95;4.15;;;34.00;77.40;;;;;;5110459;28;20601;-71
2023/06/10 12:11:53;;;;;;;4.18;3.83;;;34.20;79.10;;;;;;5110861;28;20203;-71
2023/06/10 12:14:54;;;;;;;5.07;4.18;;;34.30;76.00;;;;;;5110555;28;20290;-71
2023/06/10 12:17:23;;;;;;;6.10;4.18;;;33.60;76.70;;;;;;5109915;28;20223;-71
2023/06/10 12:19:51;;;;;;;4.47;3.83;;;33.10;77.60;;;;;;5109556;28;20187;-71
2023/06/10 12:22:23;;;;;;;4.35;3.92;;;33.30;79.70;;;;;;5108542;28;20616;-71
2023/06/10 12:25:01;;;;;;;3.85;3.58;;;33.80;76.00;;;;;;5105733;28;20274;-71
2023/06/10 12:27:29;;;;;;;3.97;3.63;;;33.90;75.60;;;;;;5109940;28;20230;-71
2023/06/10 12:30:00;;;;;;;10.50;4.15;;;33.60;76.70;;;;;;5110067;28;20667;-71
2023/06/10 12:32:36;;;;;;;5.05;4.45;;;33.00;77.40;;;;;;5110245;28;20210;-71
2023/06/10 12:35:05;;;;;;;7.13;3.85;;;32.60;79.10;;;;;;5109609;28;20201;-71
2023/06/10 12:37:34;;;;;;;4.82;3.65;;;32.50;79.50;;;;;;5109798;28;20938;-71
2023/06/10 12:40:06;;;;;;;7.35;3.90;;;32.80;77.00;;;;;;5110080;28;20207;-71
2023/06/10 12:42:35;;;;;;;5.10;3.80;;;32.70;74.50;;;;;;5106134;28;20218;-72
2023/06/10 12:45:03;;;;;;;3.95;3.53;;;33.00;77.70;;;;;;5088378;28;20713;-72
2023/06/10 12:47:32;;;;;;;5.00;3.90;;;33.80;78.50;;;;;;5089562;28;20286;-72
2023/06/10 12:50:00;;;;;;;5.63;4.00;;;34.50;76.20;;;;;;5089500;28;20253;-71
2023/06/10 12:52:28;;;;;;;4.43;4.03;;;35.00;74.70;;;;;;5089606;28;20211;-71
2023/06/10 12:54:58;;;;;;;4.00;3.65;;;35.40;75.20;;;;;;5088645;28;20212;-72